Time;durP1;ratioP1;P1;durP2;ratioP2;P2;SDS_P1;SDS_P2;PMS_P1;PMS_P2;Temp;Humidity;BMP_temperature;BMP_pressure;BME280_temperature;BME280_humidity;BME280_pressure;Samples;Min_cycle;Max_cycle;Signal;HPM_P1;HPM_P2
2023/05/28 00:00:45;;;;;;;7.47;4.90;;;;;;;;;;4959441;29;20707;-77
2023/05/28 00:03:11;;;;;;;10.67;4.60;;;;;;;;;;4959514;29;20495;-78
2023/05/28 00:05:37;;;;;;;11.90;4.87;;;;;;;;;;4959754;29;20415;-77
2023/05/28 00:08:03;;;;;;;10.90;4.97;;;;;;;;;;4959677;29;20491;-78
2023/05/28 00:10:29;;;;;;;7.30;5.10;;;;;;;;;;4959761;29;20864;-78
2023/05/28 00:12:55;;;;;;;9.43;4.80;;;;;;;;;;4958854;29;20416;-78
2023/05/28 00:15:21;;;;;;;5.87;4.40;;;;;;;;;;4959576;29;20413;-78
2023/05/28 00:17:47;;;;;;;12.17;5.10;;;;;;;;;;4959231;29;20408;-78
2023/05/28 00:20:13;;;;;;;8.80;5.57;;;;;;;;;;4959379;29;20424;-78
2023/05/28 00:22:39;;;;;;;9.87;5.63;;;;;;;;;;4959259;28;20419;-77
2023/05/28 00:25:06;;;;;;;8.13;5.47;;;;;;;;;;4959226;29;20474;-77
2023/05/28 00:27:32;;;;;;;11.70;5.60;;;;;;;;;;4959500;29;20923;-77
2023/05/28 00:29:58;;;;;;;12.97;5.70;;;;;;;;;;4958673;29;20468;-77
2023/05/28 00:32:24;;;;;;;11.03;5.10;;;;;;;;;;4959319;29;20376;-77
2023/05/28 00:34:50;;;;;;;13.00;5.03;;;;;;;;;;4959036;29;20416;-78
2023/05/28 00:37:16;;;;;;;10.80;5.07;;;;;;;;;;4959752;29;20401;-78
2023/05/28 00:39:42;;;;;;;6.57;5.63;;;;;;;;;;4959348;29;20421;-77
2023/05/28 00:42:10;;;;;;;8.90;5.93;;;;;;;;;;4959463;29;20409;-78
2023/05/28 00:44:39;;;;;;;14.27;5.90;;;;;;;;;;4959339;29;20436;-77
2023/05/28 00:47:05;;;;;;;7.83;5.27;;;;;;;;;;4958545;29;20401;-77
2023/05/28 00:49:32;;;;;;;8.00;5.03;;;;;;;;;;4959177;29;20411;-77
2023/05/28 00:51:58;;;;;;;8.27;5.07;;;;;;;;;;4973986;28;20459;-78
2023/05/28 00:54:25;;;;;;;9.03;6.13;;;;;;;;;;4958823;29;20895;-77
2023/05/28 00:56:57;;;;;;;6.60;5.90;;;;;;;;;;4958796;29;20412;-77
2023/05/28 00:59:24;;;;;;;10.67;5.80;;;;;;;;;;4958890;29;20829;-77
2023/05/28 01:01:50;;;;;;;10.70;6.30;;;;;;;;;;4958662;29;20400;-78
2023/05/28 01:04:16;;;;;;;8.43;5.57;;;;;;;;;;4958234;29;20425;-77
2023/05/28 01:06:43;;;;;;;9.40;6.20;;;;;;;;;;4957772;29;20432;-77
2023/05/28 01:09:09;;;;;;;10.00;5.90;;;;;;;;;;4958504;29;21205;-77
2023/05/28 01:11:36;;;;;;;6.70;5.90;;;;;;;;;;4959209;29;20471;-77
2023/05/28 01:14:05;;;;;;;8.37;5.50;;;;;;;;;;4958862;29;20483;-77
2023/05/28 01:16:32;;;;;;;8.03;5.90;;;;;;;;;;4958238;29;20408;-77
2023/05/28 01:18:58;;;;;;;10.60;6.07;;;;;;;;;;4959016;29;20495;-77
2023/05/28 01:21:27;;;;;;;8.50;5.87;;;;;;;;;;4959202;29;20172;-77
2023/05/28 01:23:54;;;;;;;8.97;5.43;;;;;;;;;;4958486;29;20543;-78
2023/05/28 01:26:20;;;;;;;9.40;6.13;;;;;;;;;;4959041;29;20401;-77
2023/05/28 01:28:49;;;;;;;10.60;5.70;;;;;;;;;;4958566;29;20445;-77
2023/05/28 01:31:16;;;;;;;12.83;6.43;;;;;;;;;;4958914;29;20492;-77
2023/05/28 01:33:43;;;;;;;10.20;5.97;;;;;;;;;;4958232;28;20885;-77
2023/05/28 01:36:16;;;;;;;10.30;6.17;;;;;;;;;;4958668;29;20404;-78
2023/05/28 01:38:43;;;;;;;8.20;6.15;;;;;;;;;;4958894;29;20409;-77
2023/05/28 01:41:09;;;;;;;11.23;6.37;;;;;;;;;;4958578;29;20188;-77
2023/05/28 01:43:36;;;;;;;7.53;6.40;;;;;;;;;;4957717;29;20939;-77
2023/05/28 01:46:02;;;;;;;12.70;6.13;;;;;;;;;;4958438;29;20264;-77
2023/05/28 01:48:28;;;;;;;8.43;5.47;;;;;;;;;;4959114;29;20180;-77
2023/05/28 01:50:54;;;;;;;12.27;6.97;;;;;;;;;;4958643;29;20583;-78
2023/05/28 01:53:20;;;;;;;12.27;6.07;;;;;;;;;;4958810;29;20497;-77
2023/05/28 01:55:46;;;;;;;15.13;7.00;;;;;;;;;;4958932;29;20701;-77
2023/05/28 01:58:12;;;;;;;10.02;6.03;;;;;;;;;;4958538;29;20437;-77
2023/05/28 02:00:43;;;;;;;9.75;6.22;;;;;;;;;;4959161;29;20196;-77
2023/05/28 02:03:11;;;;;;;8.53;6.17;;;;;;;;;;4958853;29;20161;-77
2023/05/28 02:05:37;;;;;;;10.07;6.30;;;;;;;;;;4957366;29;20424;-77
2023/05/28 02:08:03;;;;;;;15.70;7.57;;;;;;;;;;4958437;29;20180;-78
2023/05/28 02:10:29;;;;;;;9.70;7.32;;;;;;;;;;4958663;29;20192;-77
2023/05/28 02:12:55;;;;;;;9.70;6.13;;;;;;;;;;4958104;29;20633;-78
2023/05/28 02:15:22;;;;;;;13.43;7.05;;;;;;;;;;4958653;29;20416;-77
2023/05/28 02:17:49;;;;;;;10.55;6.50;;;;;;;;;;4958604;29;20173;-77
2023/05/28 02:20:16;;;;;;;14.30;7.73;;;;;;;;;;4958519;29;20224;-77
2023/05/28 02:22:42;;;;;;;10.40;6.03;;;;;;;;;;4958316;29;20404;-77
2023/05/28 02:25:08;;;;;;;10.50;6.40;;;;;;;;;;4958621;29;20263;-78
2023/05/28 02:27:35;;;;;;;14.27;7.22;;;;;;;;;;4958454;29;20408;-77
2023/05/28 02:30:01;;;;;;;12.43;7.63;;;;;;;;;;4958289;29;20254;-77
2023/05/28 02:32:27;;;;;;;10.75;7.28;;;;;;;;;;4958853;29;20640;-77
2023/05/28 02:34:54;;;;;;;13.50;8.50;;;;;;;;;;4958414;29;20232;-77
2023/05/28 02:37:23;;;;;;;9.52;7.15;;;;;;;;;;4958227;29;20375;-77
2023/05/28 02:39:50;;;;;;;12.10;6.97;;;;;;;;;;4959117;29;20648;-77
2023/05/28 02:42:16;;;;;;;13.35;7.75;;;;;;;;;;4958549;29;20797;-77
2023/05/28 02:44:42;;;;;;;11.98;7.65;;;;;;;;;;4958466;29;20622;-77
2023/05/28 02:47:08;;;;;;;10.52;7.78;;;;;;;;;;4960363;28;20183;-77
2023/05/28 02:49:34;;;;;;;14.25;7.75;;;;;;;;;;4961598;29;20181;-77
2023/05/28 02:52:00;;;;;;;19.80;9.00;;;;;;;;;;4961877;29;20169;-77
2023/05/28 02:54:26;;;;;;;14.13;8.30;;;;;;;;;;4961985;29;20401;-77
2023/05/28 02:56:52;;;;;;;12.88;8.05;;;;;;;;;;4962673;29;20467;-77
2023/05/28 02:59:18;;;;;;;16.02;9.20;;;;;;;;;;4962160;29;20193;-78
2023/05/28 03:01:44;;;;;;;14.50;8.40;;;;;;;;;;4962261;29;20185;-77
2023/05/28 03:04:10;;;;;;;12.30;8.15;;;;;;;;;;4961667;29;20770;-78
2023/05/28 03:06:37;;;;;;;8.80;7.57;;;;;;;;;;4961957;29;20209;-77
2023/05/28 03:09:03;;;;;;;13.98;8.10;;;;;;;;;;4961911;29;20405;-77
2023/05/28 03:11:29;;;;;;;11.48;7.20;;;;;;;;;;4960917;29;20591;-77
2023/05/28 03:13:55;;;;;;;13.32;7.40;;;;;;;;;;4961216;29;20177;-77
2023/05/28 03:16:21;;;;;;;13.05;7.05;;;;;;;;;;4961749;29;20184;-77
2023/05/28 03:18:47;;;;;;;12.40;8.30;;;;;;;;;;4961373;29;20173;-78
2023/05/28 03:21:13;;;;;;;19.48;8.48;;;;;;;;;;4961128;29;20185;-78
2023/05/28 03:23:39;;;;;;;12.37;7.57;;;;;;;;;;4961942;29;20177;-77
2023/05/28 03:26:05;;;;;;;12.73;7.93;;;;;;;;;;4961500;29;20789;-78
2023/05/28 03:28:31;;;;;;;12.85;7.28;;;;;;;;;;4961626;29;20467;-77
2023/05/28 03:30:57;;;;;;;10.67;6.70;;;;;;;;;;4961124;29;20209;-77
2023/05/28 03:33:23;;;;;;;12.98;7.55;;;;;;;;;;4961498;29;20725;-78
2023/05/28 03:35:49;;;;;;;9.82;6.85;;;;;;;;;;4961465;29;20169;-77
2023/05/28 03:38:16;;;;;;;17.67;7.95;;;;;;;;;;4961386;29;20172;-78
2023/05/28 03:40:42;;;;;;;9.60;7.10;;;;;;;;;;4961118;29;20173;-78
2023/05/28 03:43:08;;;;;;;11.90;7.00;;;;;;;;;;4960864;29;20173;-77
2023/05/28 03:45:34;;;;;;;15.00;6.75;;;;;;;;;;4961560;29;20558;-77
2023/05/28 03:48:02;;;;;;;14.07;7.63;;;;;;;;;;4960946;29;20211;-78
2023/05/28 03:50:28;;;;;;;11.77;7.72;;;;;;;;;;4960964;29;20483;-77
2023/05/28 03:52:54;;;;;;;11.93;8.02;;;;;;;;;;4961565;29;20550;-77
2023/05/28 03:55:20;;;;;;;14.70;8.65;;;;;;;;;;4960580;29;20177;-77
2023/05/28 03:57:47;;;;;;;20.90;8.23;;;;;;;;;;4960275;28;20184;-77
2023/05/28 04:00:13;;;;;;;12.98;7.45;;;;;;;;;;4961081;29;20456;-77
2023/05/28 04:02:39;;;;;;;16.10;8.20;;;;;;;;;;4960489;29;20667;-77
2023/05/28 04:05:06;;;;;;;9.85;7.32;;;;;;;;;;4960245;29;20181;-78
2023/05/28 04:07:32;;;;;;;9.80;7.75;;;;;;;;;;4960767;29;20177;-77
2023/05/28 04:09:58;;;;;;;11.90;8.10;;;;;;;;;;4960807;29;20209;-77
2023/05/28 04:12:24;;;;;;;14.02;8.88;;;;;;;;;;4960242;29;20177;-77
2023/05/28 04:14:50;;;;;;;12.13;7.68;;;;;;;;;;4960443;29;20173;-77
2023/05/28 04:17:17;;;;;;;14.68;8.63;;;;;;;;;;4960010;29;20183;-78
2023/05/28 04:19:43;;;;;;;13.25;9.32;;;;;;;;;;4961073;29;20228;-77
2023/05/28 04:22:09;;;;;;;14.70;8.38;;;;;;;;;;4960912;29;20173;-78
2023/05/28 04:24:35;;;;;;;14.05;8.23;;;;;;;;;;4960785;29;20557;-78
2023/05/28 04:27:02;;;;;;;14.73;7.33;;;;;;;;;;4959921;29;20200;-78
2023/05/28 04:29:30;;;;;;;14.73;8.20;;;;;;;;;;4959856;29;20895;-77
2023/05/28 04:31:57;;;;;;;13.27;8.40;;;;;;;;;;4960316;29;20515;-78
2023/05/28 04:34:24;;;;;;;12.60;8.03;;;;;;;;;;4960033;29;20165;-78
2023/05/28 04:36:51;;;;;;;23.17;9.25;;;;;;;;;;4960177;29;20405;-77
2023/05/28 04:39:18;;;;;;;19.45;8.85;;;;;;;;;;4960270;29;20188;-77
2023/05/28 04:41:45;;;;;;;11.25;8.23;;;;;;;;;;4960495;29;20520;-77
2023/05/28 04:44:15;;;;;;;12.85;8.00;;;;;;;;;;4958280;29;20625;-78
2023/05/28 04:46:43;;;;;;;15.10;8.35;;;;;;;;;;4959772;29;20204;-78
2023/05/28 04:49:10;;;;;;;15.40;8.77;;;;;;;;;;4959714;29;20180;-78
2023/05/28 04:51:36;;;;;;;14.98;8.48;;;;;;;;;;4974244;28;20546;-77
2023/05/28 04:54:02;;;;;;;11.70;9.13;;;;;;;;;;4959402;29;20653;-77
2023/05/28 04:56:28;;;;;;;12.63;8.48;;;;;;;;;;4960731;29;20405;-78
2023/05/28 04:58:55;;;;;;;18.40;9.98;;;;;;;;;;4960000;29;20562;-77
2023/05/28 05:01:22;;;;;;;19.70;9.25;;;;;;;;;;4959139;29;20223;-77
2023/05/28 05:03:48;;;;;;;16.38;9.35;;;;;;;;;;4959591;29;20236;-77
2023/05/28 05:06:14;;;;;;;20.00;9.17;;;;;;;;;;4959471;29;20173;-78
2023/05/28 05:08:40;;;;;;;16.87;8.97;;;;;;;;;;4959153;28;20408;-77
2023/05/28 05:11:06;;;;;;;18.60;9.60;;;;;;;;;;4959421;29;20467;-77
2023/05/28 05:13:32;;;;;;;14.47;9.43;;;;;;;;;;4959301;29;20797;-77
2023/05/28 05:15:58;;;;;;;18.93;9.43;;;;;;;;;;4959758;29;20916;-77
2023/05/28 05:18:24;;;;;;;8.88;7.97;;;;;;;;;;4959130;29;20405;-77
2023/05/28 05:20:50;;;;;;;18.60;8.33;;;;;;;;;;4959287;29;20229;-77
2023/05/28 05:23:16;;;;;;;15.48;8.73;;;;;;;;;;4959068;29;20908;-77
2023/05/28 05:25:43;;;;;;;16.10;8.15;;;;;;;;;;4958862;29;20184;-77
2023/05/28 05:28:09;;;;;;;16.88;9.18;;;;;;;;;;4958786;29;20191;-78
2023/05/28 05:30:36;;;;;;;18.20;9.63;;;;;;;;;;4958166;29;20221;-77
2023/05/28 05:33:02;;;;;;;21.60;9.55;;;;;;;;;;4958270;29;20180;-77
2023/05/28 05:35:28;;;;;;;17.23;8.20;;;;;;;;;;4958832;29;20173;-77
2023/05/28 05:37:54;;;;;;;15.10;8.77;;;;;;;;;;4959013;29;20447;-77
2023/05/28 05:40:20;;;;;;;12.23;7.60;;;;;;;;;;4958801;29;20421;-77
2023/05/28 05:42:46;;;;;;;19.43;8.83;;;;;;;;;;4958641;29;20404;-77
2023/05/28 05:45:12;;;;;;;16.80;8.53;;;;;;;;;;4958424;29;20750;-77
2023/05/28 05:47:38;;;;;;;13.07;7.93;;;;;;;;;;4959362;29;20397;-77
2023/05/28 05:50:05;;;;;;;16.43;7.97;;;;;;;;;;4958113;29;20551;-77
2023/05/28 05:52:31;;;;;;;14.00;8.80;;;;;;;;;;4958183;29;20440;-77
2023/05/28 05:54:57;;;;;;;13.70;8.63;;;;;;;;;;4958840;29;20404;-77
2023/05/28 05:57:23;;;;;;;15.27;8.80;;;;;;;;;;4958239;29;20409;-77
2023/05/28 05:59:50;;;;;;;14.37;8.70;;;;;;;;;;4958746;29;20428;-77
2023/05/28 06:02:16;;;;;;;12.67;7.90;;;;;;;;;;4958578;29;20415;-77
2023/05/28 06:04:42;;;;;;;14.63;8.60;;;;;;;;;;4959055;29;20397;-77
2023/05/28 06:07:08;;;;;;;11.07;8.20;;;;;;;;;;4958967;29;20413;-78
2023/05/28 06:09:34;;;;;;;16.63;9.03;;;;;;;;;;4958615;29;20424;-77
2023/05/28 06:12:01;;;;;;;16.20;9.50;;;;;;;;;;4957907;29;20923;-77
2023/05/28 06:14:28;;;;;;;16.13;9.20;;;;;;;;;;4958296;29;20767;-74
2023/05/28 06:16:54;;;;;;;14.20;8.23;;;;;;;;;;4958946;29;20440;-77
2023/05/28 06:19:21;;;;;;;12.70;7.93;;;;;;;;;;4958539;29;20487;-75
2023/05/28 06:21:47;;;;;;;14.10;9.93;;;;;;;;;;4962873;28;20470;-75
2023/05/28 06:24:13;;;;;;;16.57;9.90;;;;;;;;;;4962710;29;20409;-75
2023/05/28 06:26:39;;;;;;;14.23;8.90;;;;;;;;;;4963142;29;20403;-77
2023/05/28 06:29:07;;;;;;;14.27;9.00;;;;;;;;;;4962752;29;20420;-78
2023/05/28 06:31:33;;;;;;;14.33;9.70;;;;;;;;;;4962366;29;20522;-77
2023/05/28 06:33:59;;;;;;;19.70;8.93;;;;;;;;;;4962609;29;20424;-78
2023/05/28 06:36:25;;;;;;;15.57;10.00;;;;;;;;;;4962090;29;20404;-77
2023/05/28 06:38:51;;;;;;;15.90;8.10;;;;;;;;;;4962202;29;20412;-78
2023/05/28 06:41:17;;;;;;;14.33;8.00;;;;;;;;;;4962081;29;20416;-78
2023/05/28 06:43:43;;;;;;;10.13;6.80;;;;;;;;;;4961734;29;20827;-77
2023/05/28 06:46:09;;;;;;;14.40;6.70;;;;;;;;;;4962142;29;20403;-79
2023/05/28 06:48:35;;;;;;;12.73;7.07;;;;;;;;;;4962587;29;20408;-78
2023/05/28 06:51:02;;;;;;;13.90;6.97;;;;;;;;;;4961805;29;20496;-78
2023/05/28 06:53:28;;;;;;;9.73;6.27;;;;;;;;;;4961852;29;20426;-78
2023/05/28 06:55:54;;;;;;;10.10;6.37;;;;;;;;;;4961476;29;20444;-78
2023/05/28 06:58:20;;;;;;;12.97;7.43;;;;;;;;;;4961629;29;20408;-78
2023/05/28 07:00:46;;;;;;;12.00;6.47;;;;;;;;;;4962005;29;20428;-78
2023/05/28 07:03:12;;;;;;;9.00;5.90;;;;;;;;;;4961671;29;20413;-78
2023/05/28 07:05:38;;;;;;;10.60;7.63;;;;;;;;;;4961959;29;20383;-78
2023/05/28 07:08:04;;;;;;;7.07;6.30;;;;;;;;;;4961781;29;20467;-78
2023/05/28 07:10:30;;;;;;;7.33;5.70;;;;;;;;;;4961479;29;20460;-78
2023/05/28 07:12:56;;;;;;;10.80;5.70;;;;;;;;;;4961562;29;20405;-78
2023/05/28 07:15:22;;;;;;;10.17;5.57;;;;;;;;;;4961194;29;20405;-78
2023/05/28 07:17:48;;;;;;;16.17;5.67;;;;;;;;;;4961239;29;20378;-78
2023/05/28 07:20:16;;;;;;;8.93;5.73;;;;;;;;;;4961190;29;20412;-78
2023/05/28 07:22:42;;;;;;;9.67;4.90;;;;;;;;;;4960827;29;20412;-78
2023/05/28 07:25:08;;;;;;;7.77;4.60;;;;;;;;;;4961448;29;20400;-78
2023/05/28 07:27:34;;;;;;;7.53;5.53;;;;;;;;;;4961315;29;20387;-78
2023/05/28 07:30:00;;;;;;;9.20;5.27;;;;;;;;;;4960754;29;20526;-78
2023/05/28 07:32:26;;;;;;;9.63;5.27;;;;;;;;;;4959782;28;20415;-77
2023/05/28 07:34:52;;;;;;;8.47;5.87;;;;;;;;;;4960958;29;20429;-78
2023/05/28 07:37:18;;;;;;;10.03;5.37;;;;;;;;;;4960679;29;20436;-78
2023/05/28 07:39:44;;;;;;;11.77;5.33;;;;;;;;;;4960605;29;20399;-78
2023/05/28 07:42:10;;;;;;;7.07;5.10;;;;;;;;;;4960887;29;20372;-78
2023/05/28 07:44:36;;;;;;;12.20;5.47;;;;;;;;;;4960229;29;20378;-78
2023/05/28 07:47:02;;;;;;;10.50;6.30;;;;;;;;;;4960959;29;20742;-78
2023/05/28 07:49:28;;;;;;;6.87;4.63;;;;;;;;;;4960553;29;20412;-78
2023/05/28 07:51:54;;;;;;;7.53;5.00;;;;;;;;;;4960358;29;20472;-75
2023/05/28 07:54:20;;;;;;;6.90;5.10;;;;;;;;;;4960124;29;20488;-74
2023/05/28 07:56:46;;;;;;;9.83;4.93;;;;;;;;;;4958705;29;20416;-75
2023/05/28 07:59:12;;;;;;;7.10;4.80;;;;;;;;;;4959964;29;20443;-74
2023/05/28 08:01:38;;;;;;;11.53;4.73;;;;;;;;;;4960053;29;20867;-74
2023/05/28 08:04:04;;;;;;;8.50;4.80;;;;;;;;;;4959286;29;20408;-78
2023/05/28 08:06:32;;;;;;;13.10;5.03;;;;;;;;;;4959379;29;20409;-78
2023/05/28 08:08:58;;;;;;;9.30;4.37;;;;;;;;;;4959636;29;20401;-74
2023/05/28 08:11:25;;;;;;;9.90;4.67;;;;;;;;;;4959496;29;20435;-78
2023/05/28 08:13:51;;;;;;;9.37;4.47;;;;;;;;;;4959686;29;20917;-75
2023/05/28 08:16:18;;;;;;;8.53;4.80;;;;;;;;;;4958864;29;20371;-75
2023/05/28 08:18:44;;;;;;;7.67;4.63;;;;;;;;;;4959343;29;20397;-78
2023/05/28 08:21:10;;;;;;;6.67;4.50;;;;;;;;;;4959085;29;20410;-74
2023/05/28 08:23:36;;;;;;;7.97;4.47;;;;;;;;;;4958818;29;20788;-75
2023/05/28 08:26:02;;;;;;;7.80;4.30;;;;;;;;;;4959205;29;20383;-78
2023/05/28 08:28:29;;;;;;;10.90;4.97;;;;;;;;;;4959089;29;20412;-75
2023/05/28 08:30:55;;;;;;;7.47;4.67;;;;;;;;;;4958793;29;20476;-75
2023/05/28 08:33:21;;;;;;;8.43;4.20;;;;;;;;;;4958595;29;20926;-76
2023/05/28 08:35:47;;;;;;;7.23;4.20;;;;;;;;;;4958778;29;20409;-75
2023/05/28 08:38:13;;;;;;;7.37;4.00;;;;;;;;;;4959088;29;20397;-75
2023/05/28 08:40:40;;;;;;;9.07;3.87;;;;;;;;;;4958274;29;20412;-75
2023/05/28 08:43:07;;;;;;;10.90;4.50;;;;;;;;;;4958778;28;20408;-78
2023/05/28 08:45:33;;;;;;;8.27;3.87;;;;;;;;;;4957998;29;20411;-78
2023/05/28 08:48:00;;;;;;;8.80;4.00;;;;;;;;;;4958427;29;20459;-77
2023/05/28 08:50:27;;;;;;;7.10;4.13;;;;;;;;;;4957642;29;20784;-76
2023/05/28 08:52:53;;;;;;;7.03;3.90;;;;;;;;;;4958168;29;20413;-77
2023/05/28 08:55:19;;;;;;;7.67;3.90;;;;;;;;;;4957604;29;20447;-78
2023/05/28 08:57:46;;;;;;;6.70;3.70;;;;;;;;;;4957622;29;20731;-78
2023/05/28 09:00:13;;;;;;;9.27;4.10;;;;;;;;;;4957035;29;20456;-78
2023/05/28 09:02:40;;;;;;;6.20;4.30;;;;;;;;;;4957028;29;20417;-78
2023/05/28 09:05:06;;;;;;;5.23;3.90;;;;;;;;;;4957169;29;20483;-78
2023/05/28 09:07:32;;;;;;;7.20;3.70;;;;;;;;;;4957003;29;20451;-78
2023/05/28 09:09:58;;;;;;;7.03;3.47;;;;;;;;;;4956998;29;20479;-78
2023/05/28 09:12:25;;;;;;;6.07;3.60;;;;;;;;;;4956847;29;20472;-75
2023/05/28 09:14:52;;;;;;;8.33;4.30;;;;;;;;;;4956364;29;20443;-76
2023/05/28 09:17:18;;;;;;;5.13;3.60;;;;;;;;;;4955942;29;20413;-77
2023/05/28 09:19:51;;;;;;;10.97;3.70;;;;;;;;;;4955941;29;20409;-76
2023/05/28 09:22:18;;;;;;;5.87;3.67;;;;;;;;;;4955929;29;20436;-76
2023/05/28 09:24:48;;;;;;;6.20;3.47;;;;;;;;;;4956484;29;20415;-75
2023/05/28 09:27:19;;;;;;;5.13;3.37;;;;;;;;;;4956259;29;20409;-76
2023/05/28 09:29:46;;;;;;;7.07;3.90;;;;;;;;;;4955874;29;20425;-76
2023/05/28 09:32:12;;;;;;;7.20;3.83;;;;;;;;;;4955848;29;20423;-76
2023/05/28 09:34:42;;;;;;;6.77;4.17;;;;;;;;;;4955822;29;20837;-76
2023/05/28 09:37:08;;;;;;;6.30;3.70;;;;;;;;;;4956141;29;20428;-76
2023/05/28 09:39:34;;;;;;;7.00;3.60;;;;;;;;;;4956140;29;20436;-76
2023/05/28 09:42:09;;;;;;;9.23;4.00;;;;;;;;;;4955716;29;20836;-76
2023/05/28 09:44:36;;;;;;;5.23;3.53;;;;;;;;;;4955667;29;20487;-76
2023/05/28 09:47:02;;;;;;;7.73;4.30;;;;;;;;;;4955779;29;20703;-77
2023/05/28 09:49:32;;;;;;;7.03;4.40;;;;;;;;;;4953833;29;20416;-77
2023/05/28 09:51:59;;;;;;;4.73;3.10;;;;;;;;;;4955475;29;20452;-76
2023/05/28 09:54:31;;;;;;;4.60;3.60;;;;;;;;;;4954989;28;20427;-78
2023/05/28 09:56:58;;;;;;;6.13;4.00;;;;;;;;;;4961290;28;20463;-78
2023/05/28 09:59:25;;;;;;;7.77;3.80;;;;;;;;;;4961557;28;20413;-79
2023/05/28 10:01:56;;;;;;;8.27;3.93;;;;;;;;;;4961665;29;20408;-78
2023/05/28 10:04:29;;;;;;;6.23;3.80;;;;;;;;;;4961410;29;20499;-79
2023/05/28 10:06:56;;;;;;;4.67;3.40;;;;;;;;;;4961985;28;20376;-78
2023/05/28 10:09:22;;;;;;;5.80;3.87;;;;;;;;;;4959934;28;20442;-79
2023/05/28 10:11:56;;;;;;;7.10;3.77;;;;;;;;;;4961360;28;20471;-78
2023/05/28 10:14:22;;;;;;;6.87;3.23;;;;;;;;;;4961771;28;20540;-78
2023/05/28 10:16:49;;;;;;;6.93;4.00;;;;;;;;;;4961599;28;20407;-78
2023/05/28 10:19:16;;;;;;;7.73;4.00;;;;;;;;;;4961763;28;20451;-78
2023/05/28 10:21:42;;;;;;;5.93;3.47;;;;;;;;;;4961282;29;20412;-78
2023/05/28 10:24:08;;;;;;;7.07;3.77;;;;;;;;;;4961475;29;20400;-78
2023/05/28 10:26:34;;;;;;;4.37;3.17;;;;;;;;;;4961261;28;20400;-78
2023/05/28 10:29:00;;;;;;;7.47;3.80;;;;;;;;;;4961591;29;20451;-78
2023/05/28 10:31:26;;;;;;;6.10;3.97;;;;;;;;;;4961383;29;20802;-79
2023/05/28 10:33:52;;;;;;;5.73;3.60;;;;;;;;;;4961439;28;20464;-79
2023/05/28 10:36:18;;;;;;;4.47;2.83;;;;;;;;;;4961750;28;20420;-78
2023/05/28 10:38:45;;;;;;;4.47;3.50;;;;;;;;;;4961189;29;20754;-79
2023/05/28 10:41:12;;;;;;;5.33;3.27;;;;;;;;;;4961458;28;20407;-79
2023/05/28 10:43:38;;;;;;;5.00;3.70;;;;;;;;;;4961088;29;20752;-79
2023/05/28 10:46:04;;;;;;;6.80;3.60;;;;;;;;;;4961438;28;20408;-79
2023/05/28 10:48:32;;;;;;;8.03;3.40;;;;;;;;;;4960909;29;20440;-79
2023/05/28 10:51:00;;;;;;;5.10;3.83;;;;;;;;;;4960869;29;20484;-78
2023/05/28 10:53:27;;;;;;;5.50;3.53;;;;;;;;;;4960808;29;20530;-79
2023/05/28 10:55:56;;;;;;;5.80;3.70;;;;;;;;;;4961321;29;20530;-79
2023/05/28 10:58:48;;;;;;;6.90;3.70;;;;;;;;;;4960073;28;20416;-79
2023/05/28 11:01:17;;;;;;;5.70;4.00;;;;;;;;;;4959912;28;20863;-79
2023/05/28 11:03:44;;;;;;;5.87;4.17;;;;;;;;;;4960782;29;20415;-79
2023/05/28 11:06:11;;;;;;;6.20;3.63;;;;;;;;;;4960629;28;20409;-79
2023/05/28 11:08:50;;;;;;;8.63;3.80;;;;;;;;;;4956777;29;20519;-79
2023/05/28 11:11:17;;;;;;;7.17;3.60;;;;;;;;;;4958130;29;20464;-76
2023/05/28 11:13:43;;;;;;;5.20;3.77;;;;;;;;;;4956339;29;20499;-76
2023/05/28 11:16:10;;;;;;;5.97;4.10;;;;;;;;;;4957895;29;20459;-79
2023/05/28 11:18:36;;;;;;;4.40;2.90;;;;;;;;;;4957686;29;20412;-79
2023/05/28 11:21:03;;;;;;;6.53;3.77;;;;;;;;;;4957670;29;20408;-79
2023/05/28 11:23:29;;;;;;;6.53;3.90;;;;;;;;;;4957438;29;20503;-79
2023/05/28 11:25:55;;;;;;;6.77;3.80;;;;;;;;;;4958227;29;20423;-78
2023/05/28 11:28:21;;;;;;;6.30;3.20;;;;;;;;;;4957812;29;20408;-79
2023/05/28 11:30:51;;;;;;;7.63;4.00;;;;;;;;;;4957116;29;20531;-79
2023/05/28 11:33:17;;;;;;;7.17;4.27;;;;;;;;;;4957734;29;20899;-75
2023/05/28 11:35:43;;;;;;;5.87;4.20;;;;;;;;;;4957590;29;20452;-79
2023/05/28 11:38:09;;;;;;;4.00;3.60;;;;;;;;;;4957440;29;20413;-79
2023/05/28 11:40:35;;;;;;;6.67;3.60;;;;;;;;;;4957273;29;20419;-79
2023/05/28 11:43:01;;;;;;;5.00;3.80;;;;;;;;;;4957341;29;20726;-79
2023/05/28 11:45:27;;;;;;;5.40;4.00;;;;;;;;;;4957062;29;20414;-80
2023/05/28 11:47:54;;;;;;;7.00;4.10;;;;;;;;;;4957600;29;20436;-77
2023/05/28 11:50:22;;;;;;;7.80;4.70;;;;;;;;;;4957060;29;21003;-79
2023/05/28 11:52:48;;;;;;;4.53;3.77;;;;;;;;;;4957166;29;20686;-79
2023/05/28 11:55:15;;;;;;;7.47;3.90;;;;;;;;;;4957314;29;20413;-79
2023/05/28 11:57:50;;;;;;;4.70;3.40;;;;;;;;;;4957097;29;20444;-79
2023/05/28 12:00:18;;;;;;;5.87;3.80;;;;;;;;;;4957141;29;20421;-79
2023/05/28 12:02:48;;;;;;;6.77;3.93;;;;;;;;;;4956903;29;20420;-79
2023/05/28 12:05:15;;;;;;;5.50;4.10;;;;;;;;;;4956997;29;20413;-79
2023/05/28 12:07:45;;;;;;;6.57;4.30;;;;;;;;;;4956761;29;20409;-79
2023/05/28 12:10:12;;;;;;;5.00;3.77;;;;;;;;;;4956751;29;20474;-79
2023/05/28 12:12:49;;;;;;;7.20;3.73;;;;;;;;;;4956810;29;20405;-79
2023/05/28 12:15:15;;;;;;;4.47;3.80;;;;;;;;;;4957010;29;20791;-79
2023/05/28 12:17:43;;;;;;;4.87;3.63;;;;;;;;;;4956302;28;20813;-79
2023/05/28 12:20:14;;;;;;;6.47;3.60;;;;;;;;;;4955628;29;20944;-76
2023/05/28 12:22:40;;;;;;;5.87;3.80;;;;;;;;;;4956535;29;20421;-76
2023/05/28 12:25:07;;;;;;;5.23;3.80;;;;;;;;;;4956286;29;20397;-77
2023/05/28 12:27:33;;;;;;;7.53;3.80;;;;;;;;;;4954851;29;20416;-77
2023/05/28 12:29:59;;;;;;;4.80;3.50;;;;;;;;;;4956287;29;20420;-77
2023/05/28 12:32:25;;;;;;;8.40;4.10;;;;;;;;;;4956363;29;20408;-77
2023/05/28 12:34:55;;;;;;;5.90;4.27;;;;;;;;;;4956160;29;20765;-78
2023/05/28 12:37:21;;;;;;;4.77;3.70;;;;;;;;;;4956197;29;20389;-77
2023/05/28 12:39:47;;;;;;;4.90;4.27;;;;;;;;;;4955796;29;20397;-78
2023/05/28 12:42:13;;;;;;;8.37;4.60;;;;;;;;;;4956445;29;20397;-77
2023/05/28 12:44:40;;;;;;;8.03;4.10;;;;;;;;;;4955961;29;20460;-78
2023/05/28 12:47:06;;;;;;;5.00;4.00;;;;;;;;;;4956017;29;20396;-77
2023/05/28 12:49:32;;;;;;;5.23;4.53;;;;;;;;;;4955754;29;20513;-78
2023/05/28 12:51:58;;;;;;;6.63;4.23;;;;;;;;;;4955847;29;20472;-78
2023/05/28 12:54:25;;;;;;;5.83;3.70;;;;;;;;;;4956191;29;20397;-78
2023/05/28 12:56:51;;;;;;;6.90;3.53;;;;;;;;;;4955462;29;20897;-77
2023/05/28 12:59:21;;;;;;;5.30;3.90;;;;;;;;;;4956042;29;20431;-77
2023/05/28 13:01:47;;;;;;;5.23;3.90;;;;;;;;;;4955837;29;20744;-79
2023/05/28 13:04:13;;;;;;;7.73;4.10;;;;;;;;;;4955825;29;20424;-79
2023/05/28 13:06:39;;;;;;;8.57;5.00;;;;;;;;;;4955515;29;20401;-79
2023/05/28 13:09:06;;;;;;;3.73;3.40;;;;;;;;;;4956051;29;20420;-78
2023/05/28 13:11:33;;;;;;;5.87;3.90;;;;;;;;;;4955868;29;20512;-79
2023/05/28 13:13:59;;;;;;;4.70;3.80;;;;;;;;;;4955768;29;20435;-79
2023/05/28 13:16:25;;;;;;;10.93;6.47;;;;;;;;;;4955727;29;20467;-78
2023/05/28 13:18:51;;;;;;;6.80;5.17;;;;;;;;;;4955358;29;20495;-78
2023/05/28 13:21:17;;;;;;;5.80;3.90;;;;;;;;;;4955782;29;20507;-78
2023/05/28 13:23:43;;;;;;;5.23;3.80;;;;;;;;;;4955592;29;20495;-79
2023/05/28 13:26:09;;;;;;;5.63;3.73;;;;;;;;;;4955756;29;20817;-78
2023/05/28 13:28:35;;;;;;;6.93;3.50;;;;;;;;;;4970646;28;20409;-79
2023/05/28 13:31:01;;;;;;;5.33;3.77;;;;;;;;;;4954462;28;20476;-79
2023/05/28 13:33:27;;;;;;;5.27;4.20;;;;;;;;;;4955302;29;20397;-78
2023/05/28 13:35:53;;;;;;;6.80;5.17;;;;;;;;;;4954895;29;20428;-78
2023/05/28 13:38:19;;;;;;;3.90;3.43;;;;;;;;;;4954015;29;20417;-78
2023/05/28 13:40:45;;;;;;;6.50;4.37;;;;;;;;;;4955160;29;20417;-78
2023/05/28 13:43:13;;;;;;;6.17;4.50;;;;;;;;;;4955311;29;20409;-78
2023/05/28 13:45:40;;;;;;;6.93;3.77;;;;;;;;;;4954932;29;20759;-78
2023/05/28 13:48:06;;;;;;;4.80;3.27;;;;;;;;;;4953802;29;20511;-78
2023/05/28 13:50:33;;;;;;;5.23;3.50;;;;;;;;;;4954980;29;20640;-78
2023/05/28 13:52:59;;;;;;;5.93;3.73;;;;;;;;;;4955011;29;20405;-79
2023/05/28 13:55:25;;;;;;;5.03;3.70;;;;;;;;;;4955235;29;20403;-77
2023/05/28 13:57:52;;;;;;;5.43;3.33;;;;;;;;;;4954752;29;20881;-77
2023/05/28 14:00:20;;;;;;;4.20;3.30;;;;;;;;;;4954896;29;20435;-76
2023/05/28 14:02:47;;;;;;;8.30;3.60;;;;;;;;;;4954897;29;20416;-77
2023/05/28 14:05:13;;;;;;;5.00;3.63;;;;;;;;;;4955004;29;20453;-76
2023/05/28 14:07:40;;;;;;;7.50;4.00;;;;;;;;;;4955053;29;20411;-77
2023/05/28 14:10:06;;;;;;;4.67;3.70;;;;;;;;;;4955056;29;20400;-76
2023/05/28 14:12:32;;;;;;;10.50;8.00;;;;;;;;;;4954965;29;20424;-76
2023/05/28 14:14:58;;;;;;;4.13;3.47;;;;;;;;;;4954827;29;20411;-76
2023/05/28 14:17:24;;;;;;;5.33;3.77;;;;;;;;;;4954681;29;20404;-76
2023/05/28 14:19:51;;;;;;;9.27;3.97;;;;;;;;;;4954893;29;20397;-76
2023/05/28 14:22:17;;;;;;;4.30;3.53;;;;;;;;;;4954977;29;20416;-77
2023/05/28 14:24:43;;;;;;;3.90;3.50;;;;;;;;;;4954866;29;20405;-77
2023/05/28 14:27:09;;;;;;;4.73;4.07;;;;;;;;;;4954866;29;20415;-77
2023/05/28 14:29:35;;;;;;;5.10;3.60;;;;;;;;;;4955011;29;20423;-77
2023/05/28 14:32:01;;;;;;;8.47;3.27;;;;;;;;;;4954490;29;20464;-77
2023/05/28 14:34:28;;;;;;;9.03;3.50;;;;;;;;;;4955239;29;20401;-78